sensor_id;sensor_type;location;lat;lon;timestamp;temperature;humidity
20171;DHT22;10245;51.344;6.620;2022-12-07T00:02:08;5.00;94.10
20171;DHT22;10245;51.344;6.620;2022-12-07T00:04:32;5.00;94.20
20171;DHT22;10245;51.344;6.620;2022-12-07T00:06:55;5.00;94.10
20171;DHT22;10245;51.344;6.620;2022-12-07T00:09:19;5.00;94.10
20171;DHT22;10245;51.344;6.620;2022-12-07T00:11:43;5.00;94.10
20171;DHT22;10245;51.344;6.620;2022-12-07T00:14:11;5.00;94.10
20171;DHT22;10245;51.344;6.620;2022-12-07T00:16:36;5.00;94.00
20171;DHT22;10245;51.344;6.620;2022-12-07T00:19:00;5.00;94.00
20171;DHT22;10245;51.344;6.620;2022-12-07T00:21:26;5.00;93.90
20171;DHT22;10245;51.344;6.620;2022-12-07T00:23:51;5.00;94.00
20171;DHT22;10245;51.344;6.620;2022-12-07T00:26:17;5.00;93.90
20171;DHT22;10245;51.344;6.620;2022-12-07T00:28:45;5.00;93.90
20171;DHT22;10245;51.344;6.620;2022-12-07T00:31:12;5.00;93.90
20171;DHT22;10245;51.344;6.620;2022-12-07T00:33:36;5.00;93.80
20171;DHT22;10245;51.344;6.620;2022-12-07T00:36:01;5.00;93.90
20171;DHT22;10245;51.344;6.620;2022-12-07T00:38:28;5.00;93.90
20171;DHT22;10245;51.344;6.620;2022-12-07T00:40:56;5.00;93.90
20171;DHT22;10245;51.344;6.620;2022-12-07T00:43:19;5.00;93.80
20171;DHT22;10245;51.344;6.620;2022-12-07T00:45:43;5.00;93.90
20171;DHT22;10245;51.344;6.620;2022-12-07T00:48:07;5.00;94.00
20171;DHT22;10245;51.344;6.620;2022-12-07T00:50:31;5.00;93.90
20171;DHT22;10245;51.344;6.620;2022-12-07T00:52:54;5.00;93.90
20171;DHT22;10245;51.344;6.620;2022-12-07T00:55:17;5.00;93.90
20171;DHT22;10245;51.344;6.620;2022-12-07T00:57:40;4.90;93.90
20171;DHT22;10245;51.344;6.620;2022-12-07T01:00:05;4.90;93.90
20171;DHT22;10245;51.344;6.620;2022-12-07T01:02:29;5.00;93.80
20171;DHT22;10245;51.344;6.620;2022-12-07T01:04:54;4.90;93.80
20171;DHT22;10245;51.344;6.620;2022-12-07T01:07:17;5.00;93.70
20171;DHT22;10245;51.344;6.620;2022-12-07T01:09:41;4.90;93.80
20171;DHT22;10245;51.344;6.620;2022-12-07T01:12:04;4.90;93.70
20171;DHT22;10245;51.344;6.620;2022-12-07T01:14:28;5.00;93.80
20171;DHT22;10245;51.344;6.620;2022-12-07T01:16:51;4.90;93.80
20171;DHT22;10245;51.344;6.620;2022-12-07T01:19:15;4.90;93.90
20171;DHT22;10245;51.344;6.620;2022-12-07T01:21:39;4.90;93.80
20171;DHT22;10245;51.344;6.620;2022-12-07T01:24:04;4.90;93.80
20171;DHT22;10245;51.344;6.620;2022-12-07T01:26:29;4.90;93.80
20171;DHT22;10245;51.344;6.620;2022-12-07T01:28:52;4.80;93.80
20171;DHT22;10245;51.344;6.620;2022-12-07T01:31:18;4.80;93.80
20171;DHT22;10245;51.344;6.620;2022-12-07T01:33:45;4.70;93.90
20171;DHT22;10245;51.344;6.620;2022-12-07T01:36:16;4.70;93.80
20171;DHT22;10245;51.344;6.620;2022-12-07T01:38:42;4.70;93.90
20171;DHT22;10245;51.344;6.620;2022-12-07T01:41:06;4.70;93.90
20171;DHT22;10245;51.344;6.620;2022-12-07T01:43:31;4.60;93.80
20171;DHT22;10245;51.344;6.620;2022-12-07T01:45:56;4.60;93.90
20171;DHT22;10245;51.344;6.620;2022-12-07T01:48:22;4.60;93.90
20171;DHT22;10245;51.344;6.620;2022-12-07T01:50:49;4.60;93.80
20171;DHT22;10245;51.344;6.620;2022-12-07T01:53:13;4.60;93.90
20171;DHT22;10245;51.344;6.620;2022-12-07T01:55:41;4.60;94.10
20171;DHT22;10245;51.344;6.620;2022-12-07T01:58:06;4.50;94.00
20171;DHT22;10245;51.344;6.620;2022-12-07T02:00:29;4.50;94.10
20171;DHT22;10245;51.344;6.620;2022-12-07T02:02:55;4.50;94.10
20171;DHT22;10245;51.344;6.620;2022-12-07T02:05:22;4.50;94.10
20171;DHT22;10245;51.344;6.620;2022-12-07T02:07:47;4.50;94.10
20171;DHT22;10245;51.344;6.620;2022-12-07T02:10:14;4.50;94.20
20171;DHT22;10245;51.344;6.620;2022-12-07T02:12:39;4.50;94.20
20171;DHT22;10245;51.344;6.620;2022-12-07T02:15:03;4.50;94.20
20171;DHT22;10245;51.344;6.620;2022-12-07T02:17:34;4.50;94.10
20171;DHT22;10245;51.344;6.620;2022-12-07T02:20:15;4.50;94.20
20171;DHT22;10245;51.344;6.620;2022-12-07T02:23:00;4.50;94.20
20171;DHT22;10245;51.344;6.620;2022-12-07T02:25:48;4.50;94.30
20171;DHT22;10245;51.344;6.620;2022-12-07T02:28:29;4.50;94.10
20171;DHT22;10245;51.344;6.620;2022-12-07T02:30:58;4.50;94.10
20171;DHT22;10245;51.344;6.620;2022-12-07T02:33:29;4.50;94.20
20171;DHT22;10245;51.344;6.620;2022-12-07T02:35:59;4.50;94.10
20171;DHT22;10245;51.344;6.620;2022-12-07T02:38:27;4.50;94.20
20171;DHT22;10245;51.344;6.620;2022-12-07T02:40:57;4.50;94.20
20171;DHT22;10245;51.344;6.620;2022-12-07T02:43:25;4.50;94.20
20171;DHT22;10245;51.344;6.620;2022-12-07T02:45:51;4.50;94.20
20171;DHT22;10245;51.344;6.620;2022-12-07T02:48:19;4.40;94.20
20171;DHT22;10245;51.344;6.620;2022-12-07T02:50:45;4.40;94.20
20171;DHT22;10245;51.344;6.620;2022-12-07T02:53:28;4.40;94.10
20171;DHT22;10245;51.344;6.620;2022-12-07T02:55:52;4.40;94.00
20171;DHT22;10245;51.344;6.620;2022-12-07T02:58:24;4.40;93.90
20171;DHT22;10245;51.344;6.620;2022-12-07T03:00:57;4.30;94.00
20171;DHT22;10245;51.344;6.620;2022-12-07T03:03:30;4.30;94.10
20171;DHT22;10245;51.344;6.620;2022-12-07T03:06:06;4.30;94.10
20171;DHT22;10245;51.344;6.620;2022-12-07T03:08:44;4.20;94.00
20171;DHT22;10245;51.344;6.620;2022-12-07T03:11:14;4.20;94.00
20171;DHT22;10245;51.344;6.620;2022-12-07T03:13:48;4.20;94.10
20171;DHT22;10245;51.344;6.620;2022-12-07T03:16:17;4.10;94.10
20171;DHT22;10245;51.344;6.620;2022-12-07T03:18:47;4.20;94.20
20171;DHT22;10245;51.344;6.620;2022-12-07T03:21:17;4.20;94.20
20171;DHT22;10245;51.344;6.620;2022-12-07T03:23:49;4.20;94.20
20171;DHT22;10245;51.344;6.620;2022-12-07T03:26:15;4.10;94.10
20171;DHT22;10245;51.344;6.620;2022-12-07T03:28:44;4.10;94.20
20171;DHT22;10245;51.344;6.620;2022-12-07T03:31:13;4.10;94.30
20171;DHT22;10245;51.344;6.620;2022-12-07T03:33:45;4.10;94.20
20171;DHT22;10245;51.344;6.620;2022-12-07T03:36:14;4.00;94.40
20171;DHT22;10245;51.344;6.620;2022-12-07T03:38:44;4.00;94.30
20171;DHT22;10245;51.344;6.620;2022-12-07T03:41:11;4.00;94.50
20171;DHT22;10245;51.344;6.620;2022-12-07T03:43:38;4.00;94.40
20171;DHT22;10245;51.344;6.620;2022-12-07T03:46:11;4.00;94.30
20171;DHT22;10245;51.344;6.620;2022-12-07T03:48:46;3.90;94.30
20171;DHT22;10245;51.344;6.620;2022-12-07T03:51:21;3.90;94.30
20171;DHT22;10245;51.344;6.620;2022-12-07T03:53:52;4.00;94.40
20171;DHT22;10245;51.344;6.620;2022-12-07T03:56:18;4.00;94.30
20171;DHT22;10245;51.344;6.620;2022-12-07T03:58:43;4.00;94.30
20171;DHT22;10245;51.344;6.620;2022-12-07T04:01:07;4.00;94.30
20171;DHT22;10245;51.344;6.620;2022-12-07T04:03:30;3.90;94.40
20171;DHT22;10245;51.344;6.620;2022-12-07T04:05:55;4.00;94.40
20171;DHT22;10245;51.344;6.620;2022-12-07T04:08:19;4.00;94.30
20171;DHT22;10245;51.344;6.620;2022-12-07T04:10:43;4.00;94.40
20171;DHT22;10245;51.344;6.620;2022-12-07T04:13:06;4.00;94.40
20171;DHT22;10245;51.344;6.620;2022-12-07T04:15:29;4.00;94.40
20171;DHT22;10245;51.344;6.620;2022-12-07T04:17:53;4.00;94.30
20171;DHT22;10245;51.344;6.620;2022-12-07T04:20:16;4.00;94.30
20171;DHT22;10245;51.344;6.620;2022-12-07T04:22:41;4.00;94.20
20171;DHT22;10245;51.344;6.620;2022-12-07T04:25:05;4.00;94.10
20171;DHT22;10245;51.344;6.620;2022-12-07T04:27:29;4.00;94.10
20171;DHT22;10245;51.344;6.620;2022-12-07T04:29:53;4.00;94.00
20171;DHT22;10245;51.344;6.620;2022-12-07T04:32:17;4.00;94.10
20171;DHT22;10245;51.344;6.620;2022-12-07T04:34:40;4.00;94.10
20171;DHT22;10245;51.344;6.620;2022-12-07T04:37:04;4.00;94.10
20171;DHT22;10245;51.344;6.620;2022-12-07T04:39:30;4.00;94.00
20171;DHT22;10245;51.344;6.620;2022-12-07T04:41:54;3.90;93.90
20171;DHT22;10245;51.344;6.620;2022-12-07T04:44:19;4.00;93.90
20171;DHT22;10245;51.344;6.620;2022-12-07T04:46:43;3.90;93.90
20171;DHT22;10245;51.344;6.620;2022-12-07T04:49:07;3.90;93.90
20171;DHT22;10245;51.344;6.620;2022-12-07T04:51:31;3.90;93.80
20171;DHT22;10245;51.344;6.620;2022-12-07T04:53:55;4.00;93.70
20171;DHT22;10245;51.344;6.620;2022-12-07T04:56:21;3.90;93.60
20171;DHT22;10245;51.344;6.620;2022-12-07T04:58:46;3.90;93.50
20171;DHT22;10245;51.344;6.620;2022-12-07T05:01:10;3.90;93.50
20171;DHT22;10245;51.344;6.620;2022-12-07T05:03:35;3.90;93.40
20171;DHT22;10245;51.344;6.620;2022-12-07T05:05:59;4.00;93.50
20171;DHT22;10245;51.344;6.620;2022-12-07T05:08:22;3.90;93.40
20171;DHT22;10245;51.344;6.620;2022-12-07T05:10:45;3.90;93.40
20171;DHT22;10245;51.344;6.620;2022-12-07T05:13:10;3.90;93.40
20171;DHT22;10245;51.344;6.620;2022-12-07T05:15:34;4.00;93.40
20171;DHT22;10245;51.344;6.620;2022-12-07T05:17:57;4.00;93.40
20171;DHT22;10245;51.344;6.620;2022-12-07T05:20:20;4.00;93.40
20171;DHT22;10245;51.344;6.620;2022-12-07T05:22:44;3.90;93.50
20171;DHT22;10245;51.344;6.620;2022-12-07T05:25:08;4.00;93.20
20171;DHT22;10245;51.344;6.620;2022-12-07T05:27:31;4.00;93.20
20171;DHT22;10245;51.344;6.620;2022-12-07T05:29:56;4.00;93.20
20171;DHT22;10245;51.344;6.620;2022-12-07T05:32:19;4.00;93.10
20171;DHT22;10245;51.344;6.620;2022-12-07T05:34:42;4.00;93.00
20171;DHT22;10245;51.344;6.620;2022-12-07T05:37:06;4.10;93.00
20171;DHT22;10245;51.344;6.620;2022-12-07T05:39:29;4.00;93.00
20171;DHT22;10245;51.344;6.620;2022-12-07T05:41:52;4.10;93.10
20171;DHT22;10245;51.344;6.620;2022-12-07T05:44:33;4.10;93.10
20171;DHT22;10245;51.344;6.620;2022-12-07T05:46:57;4.10;92.90
20171;DHT22;10245;51.344;6.620;2022-12-07T05:49:21;4.10;92.90
20171;DHT22;10245;51.344;6.620;2022-12-07T05:51:44;4.10;92.80
20171;DHT22;10245;51.344;6.620;2022-12-07T05:54:07;4.10;92.90
20171;DHT22;10245;51.344;6.620;2022-12-07T05:56:31;4.10;93.00
20171;DHT22;10245;51.344;6.620;2022-12-07T05:58:54;4.00;93.00
20171;DHT22;10245;51.344;6.620;2022-12-07T06:01:35;4.10;92.90
20171;DHT22;10245;51.344;6.620;2022-12-07T06:03:59;4.10;93.00
20171;DHT22;10245;51.344;6.620;2022-12-07T06:06:23;4.10;92.90
20171;DHT22;10245;51.344;6.620;2022-12-07T06:08:46;4.10;93.00
20171;DHT22;10245;51.344;6.620;2022-12-07T06:11:09;4.10;92.90
20171;DHT22;10245;51.344;6.620;2022-12-07T06:13:50;4.10;92.60
20171;DHT22;10245;51.344;6.620;2022-12-07T06:16:14;4.10;92.70
20171;DHT22;10245;51.344;6.620;2022-12-07T06:18:38;4.10;92.70
20171;DHT22;10245;51.344;6.620;2022-12-07T06:21:03;4.10;93.00
20171;DHT22;10245;51.344;6.620;2022-12-07T06:23:26;4.10;92.90
20171;DHT22;10245;51.344;6.620;2022-12-07T06:25:49;4.10;92.80
20171;DHT22;10245;51.344;6.620;2022-12-07T06:28:13;4.10;92.80
20171;DHT22;10245;51.344;6.620;2022-12-07T06:30:36;4.10;92.80
20171;DHT22;10245;51.344;6.620;2022-12-07T06:33:00;4.10;92.80
20171;DHT22;10245;51.344;6.620;2022-12-07T06:35:23;4.10;92.90
20171;DHT22;10245;51.344;6.620;2022-12-07T06:37:48;4.10;92.70
20171;DHT22;10245;51.344;6.620;2022-12-07T06:40:11;4.10;92.80
20171;DHT22;10245;51.344;6.620;2022-12-07T06:42:35;4.10;92.80
20171;DHT22;10245;51.344;6.620;2022-12-07T06:44:58;4.00;93.00
20171;DHT22;10245;51.344;6.620;2022-12-07T06:47:21;4.10;92.90
20171;DHT22;10245;51.344;6.620;2022-12-07T06:50:01;4.10;92.90
20171;DHT22;10245;51.344;6.620;2022-12-07T06:52:26;4.00;92.90
20171;DHT22;10245;51.344;6.620;2022-12-07T06:54:50;4.00;92.90
20171;DHT22;10245;51.344;6.620;2022-12-07T06:57:14;4.00;92.90
20171;DHT22;10245;51.344;6.620;2022-12-07T06:59:37;4.00;93.00
20171;DHT22;10245;51.344;6.620;2022-12-07T07:02:00;4.00;93.00
20171;DHT22;10245;51.344;6.620;2022-12-07T07:04:24;4.00;93.10
20171;DHT22;10245;51.344;6.620;2022-12-07T07:06:47;4.00;93.00
20171;DHT22;10245;51.344;6.620;2022-12-07T07:09:16;4.00;93.00
20171;DHT22;10245;51.344;6.620;2022-12-07T07:11:41;4.00;93.00
20171;DHT22;10245;51.344;6.620;2022-12-07T07:14:05;3.90;92.90
20171;DHT22;10245;51.344;6.620;2022-12-07T07:16:28;3.90;93.00
20171;DHT22;10245;51.344;6.620;2022-12-07T07:18:52;3.80;92.90
20171;DHT22;10245;51.344;6.620;2022-12-07T07:21:16;3.80;93.00
20171;DHT22;10245;51.344;6.620;2022-12-07T07:23:39;3.80;93.00
20171;DHT22;10245;51.344;6.620;2022-12-07T07:26:02;3.80;92.90
20171;DHT22;10245;51.344;6.620;2022-12-07T07:28:27;3.80;92.90
20171;DHT22;10245;51.344;6.620;2022-12-07T07:30:51;3.70;92.90
20171;DHT22;10245;51.344;6.620;2022-12-07T07:33:14;3.70;92.80
20171;DHT22;10245;51.344;6.620;2022-12-07T07:35:38;3.70;93.00
20171;DHT22;10245;51.344;6.620;2022-12-07T07:38:02;3.70;93.00
20171;DHT22;10245;51.344;6.620;2022-12-07T07:40:26;3.70;93.00
20171;DHT22;10245;51.344;6.620;2022-12-07T07:42:52;3.60;93.00
20171;DHT22;10245;51.344;6.620;2022-12-07T07:45:17;3.60;93.20
20171;DHT22;10245;51.344;6.620;2022-12-07T07:47:41;3.60;93.30
20171;DHT22;10245;51.344;6.620;2022-12-07T07:50:06;3.70;93.30
20171;DHT22;10245;51.344;6.620;2022-12-07T07:52:31;3.60;93.30
20171;DHT22;10245;51.344;6.620;2022-12-07T07:54:54;3.60;93.30
20171;DHT22;10245;51.344;6.620;2022-12-07T07:57:17;3.60;93.20
20171;DHT22;10245;51.344;6.620;2022-12-07T07:59:41;3.50;93.40
20171;DHT22;10245;51.344;6.620;2022-12-07T08:02:05;3.60;93.30
20171;DHT22;10245;51.344;6.620;2022-12-07T08:04:29;3.50;93.30
20171;DHT22;10245;51.344;6.620;2022-12-07T08:06:52;3.50;93.30
20171;DHT22;10245;51.344;6.620;2022-12-07T08:09:15;3.50;93.40
20171;DHT22;10245;51.344;6.620;2022-12-07T08:11:39;3.50;93.30
20171;DHT22;10245;51.344;6.620;2022-12-07T08:14:02;3.50;93.50
20171;DHT22;10245;51.344;6.620;2022-12-07T08:16:26;3.50;93.40
20171;DHT22;10245;51.344;6.620;2022-12-07T08:18:50;3.50;93.40
20171;DHT22;10245;51.344;6.620;2022-12-07T08:21:15;3.50;93.40
20171;DHT22;10245;51.344;6.620;2022-12-07T08:23:38;3.50;93.50
20171;DHT22;10245;51.344;6.620;2022-12-07T08:26:02;3.50;93.50
20171;DHT22;10245;51.344;6.620;2022-12-07T08:28:27;3.50;93.50
20171;DHT22;10245;51.344;6.620;2022-12-07T08:30:50;3.50;93.40
20171;DHT22;10245;51.344;6.620;2022-12-07T08:33:14;3.50;93.40
20171;DHT22;10245;51.344;6.620;2022-12-07T08:35:39;3.50;93.40
20171;DHT22;10245;51.344;6.620;2022-12-07T08:38:02;3.50;93.50
20171;DHT22;10245;51.344;6.620;2022-12-07T08:40:26;3.60;93.60
20171;DHT22;10245;51.344;6.620;2022-12-07T08:42:49;3.60;93.50
20171;DHT22;10245;51.344;6.620;2022-12-07T08:45:14;3.60;93.40
20171;DHT22;10245;51.344;6.620;2022-12-07T08:47:48;3.60;93.60
20171;DHT22;10245;51.344;6.620;2022-12-07T08:50:14;3.70;93.40
20171;DHT22;10245;51.344;6.620;2022-12-07T08:52:40;3.70;93.50
20171;DHT22;10245;51.344;6.620;2022-12-07T08:55:05;3.90;93.40
20171;DHT22;10245;51.344;6.620;2022-12-07T08:57:30;3.90;93.20
20171;DHT22;10245;51.344;6.620;2022-12-07T08:59:53;4.00;93.00
20171;DHT22;10245;51.344;6.620;2022-12-07T09:02:17;4.00;92.90
20171;DHT22;10245;51.344;6.620;2022-12-07T09:04:40;4.10;92.90
20171;DHT22;10245;51.344;6.620;2022-12-07T09:07:03;4.10;92.60
20171;DHT22;10245;51.344;6.620;2022-12-07T09:09:29;4.10;92.70
20171;DHT22;10245;51.344;6.620;2022-12-07T09:11:52;4.10;92.60
20171;DHT22;10245;51.344;6.620;2022-12-07T09:14:16;4.20;92.40
20171;DHT22;10245;51.344;6.620;2022-12-07T09:16:40;4.20;92.30
20171;DHT22;10245;51.344;6.620;2022-12-07T09:19:04;4.20;92.40
20171;DHT22;10245;51.344;6.620;2022-12-07T09:21:27;4.20;92.30
20171;DHT22;10245;51.344;6.620;2022-12-07T09:23:50;4.20;92.20
20171;DHT22;10245;51.344;6.620;2022-12-07T09:26:15;4.30;92.20
20171;DHT22;10245;51.344;6.620;2022-12-07T09:28:38;4.40;91.80
20171;DHT22;10245;51.344;6.620;2022-12-07T09:31:03;4.40;91.70
20171;DHT22;10245;51.344;6.620;2022-12-07T09:33:45;4.50;91.50
20171;DHT22;10245;51.344;6.620;2022-12-07T09:36:09;4.50;90.90
20171;DHT22;10245;51.344;6.620;2022-12-07T09:38:32;4.60;91.30
20171;DHT22;10245;51.344;6.620;2022-12-07T09:40:56;4.60;91.20
20171;DHT22;10245;51.344;6.620;2022-12-07T09:43:23;4.60;91.20
20171;DHT22;10245;51.344;6.620;2022-12-07T09:45:48;4.50;91.20
20171;DHT22;10245;51.344;6.620;2022-12-07T09:48:16;4.50;90.90
20171;DHT22;10245;51.344;6.620;2022-12-07T09:50:42;4.50;90.70
20171;DHT22;10245;51.344;6.620;2022-12-07T09:53:09;4.50;90.70
20171;DHT22;10245;51.344;6.620;2022-12-07T09:55:34;4.60;90.90
20171;DHT22;10245;51.344;6.620;2022-12-07T09:57:59;4.70;90.50
20171;DHT22;10245;51.344;6.620;2022-12-07T10:00:24;4.80;90.00
20171;DHT22;10245;51.344;6.620;2022-12-07T10:02:52;4.90;90.00
20171;DHT22;10245;51.344;6.620;2022-12-07T10:05:22;4.90;89.90
20171;DHT22;10245;51.344;6.620;2022-12-07T10:07:48;5.00;89.90
20171;DHT22;10245;51.344;6.620;2022-12-07T10:10:15;4.90;89.90
20171;DHT22;10245;51.344;6.620;2022-12-07T10:12:57;5.00;89.80
20171;DHT22;10245;51.344;6.620;2022-12-07T10:15:23;5.00;90.20
20171;DHT22;10245;51.344;6.620;2022-12-07T10:17:48;5.00;89.80
20171;DHT22;10245;51.344;6.620;2022-12-07T10:20:20;5.00;89.70
20171;DHT22;10245;51.344;6.620;2022-12-07T10:23:00;4.90;89.40
20171;DHT22;10245;51.344;6.620;2022-12-07T10:25:27;4.80;89.70
20171;DHT22;10245;51.344;6.620;2022-12-07T10:28:11;4.80;89.80
20171;DHT22;10245;51.344;6.620;2022-12-07T10:30:49;4.80;89.90
20171;DHT22;10245;51.344;6.620;2022-12-07T10:33:31;4.70;89.70
20171;DHT22;10245;51.344;6.620;2022-12-07T10:35:55;4.70;89.90
20171;DHT22;10245;51.344;6.620;2022-12-07T10:38:19;4.80;89.80
20171;DHT22;10245;51.344;6.620;2022-12-07T10:40:43;4.80;89.70
20171;DHT22;10245;51.344;6.620;2022-12-07T10:43:18;4.80;89.20
20171;DHT22;10245;51.344;6.620;2022-12-07T10:45:57;4.90;89.40
20171;DHT22;10245;51.344;6.620;2022-12-07T10:48:45;5.00;88.90
20171;DHT22;10245;51.344;6.620;2022-12-07T10:51:20;5.10;88.30
20171;DHT22;10245;51.344;6.620;2022-12-07T10:53:53;5.20;88.60
20171;DHT22;10245;51.344;6.620;2022-12-07T10:56:56;5.20;88.10
20171;DHT22;10245;51.344;6.620;2022-12-07T11:00:01;5.40;88.40
20171;DHT22;10245;51.344;6.620;2022-12-07T11:02:45;5.50;88.00
20171;DHT22;10245;51.344;6.620;2022-12-07T11:05:23;5.50;87.50
20171;DHT22;10245;51.344;6.620;2022-12-07T11:07:57;5.50;88.00
20171;DHT22;10245;51.344;6.620;2022-12-07T11:10:28;5.50;87.60
20171;DHT22;10245;51.344;6.620;2022-12-07T11:13:04;5.50;86.90
20171;DHT22;10245;51.344;6.620;2022-12-07T11:15:49;5.70;87.60
20171;DHT22;10245;51.344;6.620;2022-12-07T11:18:26;5.80;87.10
20171;DHT22;10245;51.344;6.620;2022-12-07T11:20:55;5.80;87.10
20171;DHT22;10245;51.344;6.620;2022-12-07T11:23:29;5.90;86.20
20171;DHT22;10245;51.344;6.620;2022-12-07T11:26:06;6.00;86.80
20171;DHT22;10245;51.344;6.620;2022-12-07T11:28:50;6.10;85.70
20171;DHT22;10245;51.344;6.620;2022-12-07T11:31:29;6.20;86.60
20171;DHT22;10245;51.344;6.620;2022-12-07T11:34:02;6.00;85.80
20171;DHT22;10245;51.344;6.620;2022-12-07T11:36:36;6.00;85.20
20171;DHT22;10245;51.344;6.620;2022-12-07T11:39:04;6.10;85.50
20171;DHT22;10245;51.344;6.620;2022-12-07T11:41:36;6.10;86.00
20171;DHT22;10245;51.344;6.620;2022-12-07T11:44:06;6.20;85.60
20171;DHT22;10245;51.344;6.620;2022-12-07T11:46:40;6.20;84.90
20171;DHT22;10245;51.344;6.620;2022-12-07T11:49:13;6.30;85.50
20171;DHT22;10245;51.344;6.620;2022-12-07T11:51:42;6.40;84.80
20171;DHT22;10245;51.344;6.620;2022-12-07T11:54:12;6.40;84.80
20171;DHT22;10245;51.344;6.620;2022-12-07T11:56:37;6.30;83.90
20171;DHT22;10245;51.344;6.620;2022-12-07T11:59:07;6.20;83.70
20171;DHT22;10245;51.344;6.620;2022-12-07T12:01:43;6.40;84.80
20171;DHT22;10245;51.344;6.620;2022-12-07T12:04:25;6.30;83.90
20171;DHT22;10245;51.344;6.620;2022-12-07T12:06:52;6.30;84.10
20171;DHT22;10245;51.344;6.620;2022-12-07T12:09:18;6.30;84.50
20171;DHT22;10245;51.344;6.620;2022-12-07T12:12:30;6.40;84.90
20171;DHT22;10245;51.344;6.620;2022-12-07T12:15:30;6.40;85.00
20171;DHT22;10245;51.344;6.620;2022-12-07T12:21:10;6.30;84.10
20171;DHT22;10245;51.344;6.620;2022-12-07T12:23:42;6.20;84.80
20171;DHT22;10245;51.344;6.620;2022-12-07T12:26:15;6.20;85.60
20171;DHT22;10245;51.344;6.620;2022-12-07T12:28:49;6.30;84.70
20171;DHT22;10245;51.344;6.620;2022-12-07T12:31:16;6.20;84.10
20171;DHT22;10245;51.344;6.620;2022-12-07T12:33:58;6.10;84.30
20171;DHT22;10245;51.344;6.620;2022-12-07T12:36:27;6.00;84.80
20171;DHT22;10245;51.344;6.620;2022-12-07T12:39:12;6.00;84.80
20171;DHT22;10245;51.344;6.620;2022-12-07T12:41:57;6.10;85.00
20171;DHT22;10245;51.344;6.620;2022-12-07T12:47:51;6.20;85.20
20171;DHT22;10245;51.344;6.620;2022-12-07T12:50:21;6.20;84.40
20171;DHT22;10245;51.344;6.620;2022-12-07T12:53:00;6.30;85.80
20171;DHT22;10245;51.344;6.620;2022-12-07T12:58:38;6.40;84.80
20171;DHT22;10245;51.344;6.620;2022-12-07T13:01:36;6.40;84.90
20171;DHT22;10245;51.344;6.620;2022-12-07T13:04:12;6.30;84.40
20171;DHT22;10245;51.344;6.620;2022-12-07T13:06:41;6.30;83.70
20171;DHT22;10245;51.344;6.620;2022-12-07T13:09:18;6.20;83.80
20171;DHT22;10245;51.344;6.620;2022-12-07T13:11:45;6.20;84.20
20171;DHT22;10245;51.344;6.620;2022-12-07T13:14:41;6.20;84.40
20171;DHT22;10245;51.344;6.620;2022-12-07T13:17:08;6.20;83.90
20171;DHT22;10245;51.344;6.620;2022-12-07T13:19:57;6.20;83.60
20171;DHT22;10245;51.344;6.620;2022-12-07T13:22:49;6.30;82.90
20171;DHT22;10245;51.344;6.620;2022-12-07T13:25:31;6.40;82.80
20171;DHT22;10245;51.344;6.620;2022-12-07T13:28:02;6.30;82.50
20171;DHT22;10245;51.344;6.620;2022-12-07T13:30:32;6.30;82.90
20171;DHT22;10245;51.344;6.620;2022-12-07T13:33:09;6.30;83.00
20171;DHT22;10245;51.344;6.620;2022-12-07T13:35:40;6.30;83.10
20171;DHT22;10245;51.344;6.620;2022-12-07T13:38:13;6.30;82.00
20171;DHT22;10245;51.344;6.620;2022-12-07T13:40:41;6.30;82.10
20171;DHT22;10245;51.344;6.620;2022-12-07T13:43:05;6.40;82.10
20171;DHT22;10245;51.344;6.620;2022-12-07T13:45:36;6.40;80.50
20171;DHT22;10245;51.344;6.620;2022-12-07T13:48:16;6.30;80.80
20171;DHT22;10245;51.344;6.620;2022-12-07T13:50:52;6.40;81.20
20171;DHT22;10245;51.344;6.620;2022-12-07T13:53:17;6.40;82.00
20171;DHT22;10245;51.344;6.620;2022-12-07T13:55:46;6.50;81.90
20171;DHT22;10245;51.344;6.620;2022-12-07T13:58:15;6.50;82.50
20171;DHT22;10245;51.344;6.620;2022-12-07T14:00:40;6.30;82.00
20171;DHT22;10245;51.344;6.620;2022-12-07T14:03:30;6.40;82.90
20171;DHT22;10245;51.344;6.620;2022-12-07T14:06:07;6.30;83.10
20171;DHT22;10245;51.344;6.620;2022-12-07T14:08:36;6.40;83.20
20171;DHT22;10245;51.344;6.620;2022-12-07T14:11:01;6.50;84.50
20171;DHT22;10245;51.344;6.620;2022-12-07T14:13:30;6.50;83.10
20171;DHT22;10245;51.344;6.620;2022-12-07T14:15:56;6.50;83.30
20171;DHT22;10245;51.344;6.620;2022-12-07T14:18:26;6.50;83.00
20171;DHT22;10245;51.344;6.620;2022-12-07T14:20:51;6.50;83.10
20171;DHT22;10245;51.344;6.620;2022-12-07T14:23:26;6.40;83.30
20171;DHT22;10245;51.344;6.620;2022-12-07T14:25:51;6.40;83.70
20171;DHT22;10245;51.344;6.620;2022-12-07T14:28:27;6.40;83.70
20171;DHT22;10245;51.344;6.620;2022-12-07T14:30:51;6.30;83.80
20171;DHT22;10245;51.344;6.620;2022-12-07T14:33:20;6.30;84.10
20171;DHT22;10245;51.344;6.620;2022-12-07T14:35:44;6.30;84.30
20171;DHT22;10245;51.344;6.620;2022-12-07T14:38:07;6.30;84.20
20171;DHT22;10245;51.344;6.620;2022-12-07T14:40:31;6.30;84.20
20171;DHT22;10245;51.344;6.620;2022-12-07T14:42:58;6.30;85.00
20171;DHT22;10245;51.344;6.620;2022-12-07T14:45:25;6.20;85.30
20171;DHT22;10245;51.344;6.620;2022-12-07T14:47:49;6.20;84.60
20171;DHT22;10245;51.344;6.620;2022-12-07T14:50:36;6.20;84.70
20171;DHT22;10245;51.344;6.620;2022-12-07T14:53:26;6.20;85.10
20171;DHT22;10245;51.344;6.620;2022-12-07T14:55:52;6.10;85.00
20171;DHT22;10245;51.344;6.620;2022-12-07T14:58:17;6.10;85.20
20171;DHT22;10245;51.344;6.620;2022-12-07T15:00:42;6.20;84.80
20171;DHT22;10245;51.344;6.620;2022-12-07T15:03:05;6.20;85.00
20171;DHT22;10245;51.344;6.620;2022-12-07T15:05:29;6.20;85.00
20171;DHT22;10245;51.344;6.620;2022-12-07T15:07:52;6.20;85.50
20171;DHT22;10245;51.344;6.620;2022-12-07T15:10:18;6.20;85.10
20171;DHT22;10245;51.344;6.620;2022-12-07T15:12:45;6.20;84.50
20171;DHT22;10245;51.344;6.620;2022-12-07T15:15:09;6.20;84.60
20171;DHT22;10245;51.344;6.620;2022-12-07T15:17:34;6.20;84.50
20171;DHT22;10245;51.344;6.620;2022-12-07T15:19:57;6.20;85.00
20171;DHT22;10245;51.344;6.620;2022-12-07T15:22:21;6.20;85.20
20171;DHT22;10245;51.344;6.620;2022-12-07T15:24:44;6.20;84.80
20171;DHT22;10245;51.344;6.620;2022-12-07T15:27:08;6.10;84.90
20171;DHT22;10245;51.344;6.620;2022-12-07T15:29:31;6.10;84.50
20171;DHT22;10245;51.344;6.620;2022-12-07T15:31:54;6.10;84.80
20171;DHT22;10245;51.344;6.620;2022-12-07T15:34:20;6.00;85.30
20171;DHT22;10245;51.344;6.620;2022-12-07T15:36:44;6.00;85.30
20171;DHT22;10245;51.344;6.620;2022-12-07T15:39:08;6.00;85.20
20171;DHT22;10245;51.344;6.620;2022-12-07T15:41:36;6.00;85.10
20171;DHT22;10245;51.344;6.620;2022-12-07T15:43:59;5.90;85.30
20171;DHT22;10245;51.344;6.620;2022-12-07T15:46:41;5.80;85.10
20171;DHT22;10245;51.344;6.620;2022-12-07T15:49:07;5.90;85.50
20171;DHT22;10245;51.344;6.620;2022-12-07T15:51:35;5.80;85.10
20171;DHT22;10245;51.344;6.620;2022-12-07T15:53:58;5.80;84.90
20171;DHT22;10245;51.344;6.620;2022-12-07T15:56:21;5.80;85.20
20171;DHT22;10245;51.344;6.620;2022-12-07T15:58:45;5.80;85.00
20171;DHT22;10245;51.344;6.620;2022-12-07T16:01:10;5.80;84.70